createdAt,value
2019-05-29T00:02:15.426Z,5.47
2019-05-29T00:04:45.485Z,5.42
2019-05-29T00:07:15.593Z,5.40
2019-05-29T00:09:45.679Z,5.46
2019-05-29T00:12:19.675Z,5.30
2019-05-29T00:14:47.631Z,5.40
2019-05-29T00:17:18.761Z,5.34
2019-05-29T00:19:48.965Z,5.32
2019-05-29T00:22:19.043Z,5.30
2019-05-29T00:24:49.088Z,5.46
2019-05-29T00:27:19.149Z,5.37
2019-05-29T00:29:49.220Z,5.34
2019-05-29T00:32:19.300Z,5.24
2019-05-29T00:34:49.379Z,5.31
2019-05-29T00:37:19.423Z,5.30
2019-05-29T00:39:49.508Z,4.99
2019-05-29T00:42:19.562Z,4.80
2019-05-29T00:44:49.634Z,4.74
2019-05-29T00:47:19.699Z,4.88
2019-05-29T00:49:49.820Z,4.80
2019-05-29T00:52:19.903Z,4.62
2019-05-29T00:54:49.967Z,4.49
2019-05-29T00:57:20.036Z,4.38
2019-05-29T00:59:50.136Z,4.84
2019-05-29T01:02:20.204Z,5.05
2019-05-29T01:04:50.304Z,5.07
2019-05-29T01:07:20.579Z,5.06
2019-05-29T01:09:50.733Z,5.01
2019-05-29T01:12:21.263Z,4.97
2019-05-29T01:14:51.486Z,4.86
2019-05-29T01:17:23.702Z,4.90
2019-05-29T01:19:53.397Z,4.69
2019-05-29T01:22:23.492Z,4.54
2019-05-29T01:24:53.571Z,4.63
2019-05-29T01:27:23.621Z,4.56
2019-05-29T01:29:53.693Z,4.67
2019-05-29T01:32:23.864Z,4.62
2019-05-29T01:34:53.953Z,4.68
2019-05-29T01:37:24.351Z,4.58
2019-05-29T01:39:54.653Z,4.53
2019-05-29T01:42:25.003Z,4.64
2019-05-29T01:45:07.168Z,4.45
2019-05-29T01:47:28.008Z,4.38
2019-05-29T01:49:58.200Z,4.37
2019-05-29T01:52:28.252Z,4.48
2019-05-29T01:54:58.315Z,4.35
2019-05-29T01:57:28.394Z,4.33
2019-05-29T01:59:58.491Z,4.29
2019-05-29T02:02:28.549Z,4.35
2019-05-29T02:04:58.627Z,4.28
2019-05-29T02:07:28.693Z,4.12
2019-05-29T02:09:58.766Z,4.28
2019-05-29T02:12:43.798Z,4.27
2019-05-29T02:15:23.854Z,4.13
2019-05-29T02:17:46.368Z,4.07
2019-05-29T02:20:16.987Z,4.08
2019-05-29T02:22:47.107Z,4.01
2019-05-29T02:25:19.655Z,3.95
2019-05-29T02:27:50.734Z,3.93
2019-05-29T02:30:23.530Z,4.01
2019-05-29T02:32:53.650Z,3.97
2019-05-29T02:35:24.831Z,4.06
2019-05-29T02:37:55.756Z,4.20
2019-05-29T02:40:28.132Z,4.16
2019-05-29T02:42:57.782Z,4.25
2019-05-29T02:45:50.884Z,4.27
2019-05-29T02:47:59.871Z,4.39
2019-05-29T02:50:31.308Z,4.52
2019-05-29T02:53:01.598Z,4.50
2019-05-29T02:55:31.746Z,4.47
2019-05-29T02:58:01.872Z,4.41
2019-05-29T03:00:54.428Z,4.39
2019-05-29T03:03:26.502Z,4.26
2019-05-29T03:05:57.492Z,4.29
2019-05-29T03:08:31.162Z,4.36
2019-05-29T03:10:59.744Z,4.34
2019-05-29T03:13:31.604Z,4.49
2019-05-29T03:16:10.334Z,4.45
2019-05-29T03:18:35.136Z,4.43
2019-05-29T03:21:05.397Z,4.44
2019-05-29T03:23:36.370Z,4.43
2019-05-29T03:26:07.107Z,4.34
2019-05-29T03:28:38.195Z,4.30
2019-05-29T03:31:08.723Z,4.34
2019-05-29T03:33:47.806Z,4.44
2019-05-29T03:36:10.939Z,4.46
2019-05-29T03:38:41.086Z,4.49
2019-05-29T03:41:11.285Z,4.48
2019-05-29T03:43:41.615Z,4.40
2019-05-29T03:46:29.823Z,4.47
2019-05-29T03:48:46.947Z,4.42
2019-05-29T03:51:17.222Z,4.45
2019-05-29T03:53:47.395Z,4.44
2019-05-29T03:56:17.472Z,4.64
2019-05-29T03:58:47.729Z,4.61
2019-05-29T04:01:18.118Z,4.44
2019-05-29T04:03:48.308Z,4.58
2019-05-29T04:06:18.812Z,4.58
2019-05-29T04:08:50.573Z,4.64
2019-05-29T04:11:21.184Z,4.68
2019-05-29T04:13:51.491Z,4.78
2019-05-29T04:16:23.534Z,4.80
2019-05-29T04:18:55.617Z,4.86
2019-05-29T04:21:27.939Z,4.83
2019-05-29T04:24:00.441Z,4.92
2019-05-29T04:26:33.939Z,4.98
2019-05-29T04:29:04.686Z,5.03
2019-05-29T04:31:36.356Z,5.15
2019-05-29T04:34:06.811Z,5.26
2019-05-29T04:36:38.516Z,5.46
2019-05-29T04:39:08.718Z,5.59
2019-05-29T04:41:39.340Z,5.68
2019-05-29T04:44:09.494Z,5.71
2019-05-29T04:46:41.243Z,5.78
2019-05-29T04:49:11.297Z,5.81
2019-05-29T04:51:41.542Z,5.76
2019-05-29T04:54:11.622Z,5.80
2019-05-29T04:56:41.801Z,5.90
2019-05-29T04:59:11.886Z,5.99
2019-05-29T05:01:42.088Z,5.97
2019-05-29T05:04:12.143Z,6.15
2019-05-29T05:06:42.274Z,8.57
2019-05-29T05:09:12.332Z,11.92
2019-05-29T05:11:42.787Z,13.45
2019-05-29T05:14:12.862Z,13.33
2019-05-29T05:16:42.919Z,14.51
2019-05-29T05:19:13.034Z,14.53
2019-05-29T05:21:43.163Z,13.72
2019-05-29T05:24:13.257Z,15.29
2019-05-29T05:26:43.363Z,13.21
2019-05-29T05:29:13.499Z,11.82
2019-05-29T05:31:43.755Z,10.67
2019-05-29T05:34:14.253Z,9.88
2019-05-29T05:36:44.413Z,11.63
2019-05-29T05:39:14.501Z,14.56
2019-05-29T05:41:46.959Z,16.11
2019-05-29T05:44:17.027Z,15.75
2019-05-29T05:46:47.118Z,15.29
2019-05-29T05:49:17.233Z,15.22
2019-05-29T05:51:48.050Z,14.70
2019-05-29T05:54:18.128Z,15.25
2019-05-29T05:56:48.229Z,15.68
2019-05-29T05:59:18.314Z,16.82
2019-05-29T06:01:48.431Z,16.82
2019-05-29T06:04:21.400Z,17.06
2019-05-29T06:06:53.005Z,15.40
2019-05-29T06:09:23.131Z,16.49
2019-05-29T06:11:53.160Z,14.79
2019-05-29T06:14:23.264Z,13.54
2019-05-29T06:16:55.725Z,12.94
2019-05-29T06:19:25.837Z,14.53
2019-05-29T06:21:55.926Z,14.52
2019-05-29T06:24:26.082Z,13.00
2019-05-29T06:26:57.771Z,12.59
2019-05-29T06:29:29.322Z,12.36
2019-05-29T06:31:59.421Z,12.36
2019-05-29T06:34:29.503Z,12.52
2019-05-29T06:36:59.564Z,12.05
2019-05-29T06:39:29.675Z,12.21
2019-05-29T06:41:59.734Z,11.93
2019-05-29T06:44:29.832Z,12.77
2019-05-29T06:46:59.930Z,14.83
2019-05-29T06:49:30.030Z,15.78
2019-05-29T06:52:00.130Z,15.48
2019-05-29T06:54:30.221Z,14.55
2019-05-29T06:57:00.311Z,14.99
2019-05-29T06:59:30.411Z,15.89
2019-05-29T07:02:00.472Z,13.56
2019-05-29T07:04:30.823Z,14.39
2019-05-29T07:07:00.863Z,14.69
2019-05-29T07:09:30.970Z,13.77
2019-05-29T07:12:01.042Z,12.97
2019-05-29T07:14:34.721Z,14.21
2019-05-29T07:17:04.850Z,13.97
2019-05-29T07:19:48.939Z,13.21
2019-05-29T07:22:06.738Z,13.74
2019-05-29T07:24:37.069Z,12.85
2019-05-29T07:27:07.319Z,13.07
2019-05-29T07:29:37.435Z,13.42
2019-05-29T07:32:07.543Z,12.75
2019-05-29T07:34:52.675Z,12.54
2019-05-29T07:37:09.413Z,12.61
2019-05-29T07:39:39.523Z,12.53
2019-05-29T07:42:09.564Z,12.31
2019-05-29T07:44:39.996Z,12.41
2019-05-29T07:47:10.226Z,12.18
2019-05-29T07:49:43.501Z,12.27
2019-05-29T07:52:12.154Z,12.26
2019-05-29T07:54:43.649Z,12.19
2019-05-29T07:57:13.900Z,12.14
2019-05-29T07:59:44.667Z,12.26
2019-05-29T08:02:14.862Z,12.53
2019-05-29T08:04:45.217Z,12.96
2019-05-29T08:07:15.306Z,13.50
2019-05-29T08:09:45.685Z,13.51
2019-05-29T08:12:15.757Z,13.62
2019-05-29T08:14:45.917Z,13.51
2019-05-29T08:17:15.962Z,13.19
2019-05-29T08:19:59.280Z,13.24
2019-05-29T08:22:33.257Z,13.12
2019-05-29T08:24:51.098Z,13.01
2019-05-29T08:27:21.286Z,12.89
2019-05-29T08:29:51.387Z,12.19
2019-05-29T08:32:21.489Z,12.75
2019-05-29T08:34:51.654Z,12.89
2019-05-29T08:37:21.773Z,12.74
2019-05-29T08:39:51.890Z,12.70
2019-05-29T08:42:23.811Z,12.63
2019-05-29T08:44:53.785Z,12.59
2019-05-29T08:47:23.859Z,12.62
2019-05-29T08:49:54.618Z,12.96
2019-05-29T08:52:24.821Z,13.20
2019-05-29T08:54:54.922Z,13.17
2019-05-29T08:57:25.016Z,13.71
2019-05-29T08:59:55.099Z,14.21
2019-05-29T09:02:25.204Z,14.43
2019-05-29T09:04:55.285Z,15.01
2019-05-29T09:07:25.370Z,15.34
2019-05-29T09:09:55.462Z,16.03
2019-05-29T09:12:25.546Z,16.17
2019-05-29T09:14:55.683Z,15.69
2019-05-29T09:17:25.920Z,15.37
2019-05-29T09:19:55.995Z,15.89
2019-05-29T09:22:26.148Z,17.08
2019-05-29T09:24:56.214Z,17.36
2019-05-29T09:27:26.650Z,16.27
2019-05-29T09:29:56.757Z,15.86
2019-05-29T09:32:48.324Z,15.49
2019-05-29T09:34:58.654Z,14.84
2019-05-29T09:37:28.759Z,14.33
2019-05-29T09:39:58.820Z,14.03
2019-05-29T09:42:28.919Z,13.64
2019-05-29T09:44:58.991Z,13.41
2019-05-29T09:47:29.105Z,13.58
2019-05-29T09:49:59.202Z,14.07
2019-05-29T09:52:30.798Z,15.63
2019-05-29T09:55:02.493Z,17.11
2019-05-29T09:57:32.787Z,16.10
2019-05-29T10:00:04.185Z,16.07
2019-05-29T10:02:34.494Z,15.51
2019-05-29T10:05:05.074Z,15.28
2019-05-29T10:07:35.171Z,14.38
2019-05-29T10:10:06.125Z,14.11
2019-05-29T10:12:36.243Z,13.77
2019-05-29T10:15:07.358Z,13.61
2019-05-29T10:17:37.538Z,13.32
2019-05-29T10:20:08.391Z,13.36
2019-05-29T10:22:38.474Z,13.75
2019-05-29T10:25:09.085Z,14.57
2019-05-29T10:27:39.173Z,14.15
2019-05-29T10:30:10.412Z,13.59
2019-05-29T10:32:42.450Z,13.61
2019-05-29T10:35:13.215Z,15.25
2019-05-29T10:37:44.475Z,16.85
2019-05-29T10:40:15.180Z,17.85
2019-05-29T10:42:45.311Z,18.24
2019-05-29T10:45:16.005Z,18.23
2019-05-29T10:47:47.307Z,18.80
2019-05-29T10:50:17.760Z,17.11
2019-05-29T10:52:47.960Z,15.93
2019-05-29T10:55:21.384Z,17.05
2019-05-29T10:57:52.919Z,17.52
2019-05-29T11:00:23.493Z,17.00
2019-05-29T11:02:55.861Z,17.07
2019-05-29T11:05:25.372Z,17.40
2019-05-29T11:07:55.949Z,16.37
2019-05-29T11:10:26.196Z,15.98
2019-05-29T11:12:56.800Z,15.39
2019-05-29T11:15:27.138Z,15.09
2019-05-29T11:17:57.446Z,14.87
2019-05-29T11:20:27.991Z,14.76
2019-05-29T11:22:58.091Z,14.75
2019-05-29T11:25:28.592Z,14.74
2019-05-29T11:27:58.831Z,16.30
2019-05-29T11:30:29.098Z,16.93
2019-05-29T11:33:01.462Z,16.72
2019-05-29T11:35:31.082Z,16.69
2019-05-29T11:38:01.186Z,16.40
2019-05-29T11:40:31.567Z,17.24
2019-05-29T11:43:03.113Z,17.89
2019-05-29T11:45:35.599Z,17.22
2019-05-29T11:48:05.572Z,16.41
2019-05-29T11:50:35.716Z,16.70
2019-05-29T11:53:06.096Z,16.45
2019-05-29T11:55:36.148Z,15.66
2019-05-29T11:58:06.404Z,15.55
2019-05-29T12:00:36.489Z,15.24
2019-05-29T12:03:07.525Z,15.06
2019-05-29T12:05:37.589Z,14.86
2019-05-29T12:08:07.866Z,14.67
2019-05-29T12:10:38.057Z,14.70
2019-05-29T12:13:08.166Z,14.79
2019-05-29T12:15:38.275Z,14.69
2019-05-29T12:18:22.719Z,16.71
2019-05-29T12:20:40.272Z,17.80
2019-05-29T12:23:24.850Z,19.36
2019-05-29T12:25:42.207Z,19.95
2019-05-29T12:28:12.305Z,20.35
2019-05-29T12:30:42.418Z,19.85
2019-05-29T12:33:12.537Z,20.32
2019-05-29T12:35:42.625Z,20.54
2019-05-29T12:38:12.768Z,20.62
2019-05-29T12:40:42.895Z,19.35
2019-05-29T12:43:26.462Z,19.38
2019-05-29T12:45:44.829Z,19.74
2019-05-29T12:48:16.099Z,18.02
2019-05-29T12:50:46.666Z,17.18
2019-05-29T12:53:29.528Z,16.68
2019-05-29T12:55:48.656Z,17.15
2019-05-29T12:58:18.725Z,17.32
2019-05-29T13:00:48.939Z,16.48
2019-05-29T13:03:19.062Z,15.29
2019-05-29T13:05:49.139Z,16.02
2019-05-29T13:08:19.248Z,17.74
2019-05-29T13:10:50.823Z,18.71
2019-05-29T13:13:20.894Z,18.82
2019-05-29T13:15:51.213Z,17.50
2019-05-29T13:18:21.408Z,16.78
2019-05-29T13:20:51.523Z,16.32
2019-05-29T13:23:21.620Z,15.82
2019-05-29T13:25:51.767Z,16.41
2019-05-29T13:28:21.870Z,17.77
2019-05-29T13:30:51.994Z,18.58
2019-05-29T13:33:22.136Z,18.58
2019-05-29T13:35:52.402Z,18.44
2019-05-29T13:38:22.499Z,19.51
2019-05-29T13:40:52.658Z,19.74
2019-05-29T13:43:22.774Z,19.87
2019-05-29T13:45:52.909Z,20.38
2019-05-29T13:48:23.553Z,20.13
2019-05-29T13:50:53.685Z,20.93
2019-05-29T13:53:24.610Z,20.58
2019-05-29T13:55:57.739Z,20.53
2019-05-29T13:58:27.935Z,19.44
2019-05-29T14:00:58.227Z,20.03
2019-05-29T14:03:28.278Z,20.30
2019-05-29T14:05:58.743Z,21.15
2019-05-29T14:08:28.767Z,21.41
2019-05-29T14:10:59.199Z,20.24
2019-05-29T14:13:29.366Z,20.28
2019-05-29T14:16:00.568Z,20.74
2019-05-29T14:18:30.763Z,21.01
2019-05-29T14:21:00.977Z,20.86
2019-05-29T14:23:31.022Z,21.14
2019-05-29T14:26:02.217Z,21.01
2019-05-29T14:28:32.473Z,20.47
2019-05-29T14:31:03.767Z,20.90
2019-05-29T14:33:33.910Z,20.87
2019-05-29T14:36:05.843Z,21.14
2019-05-29T14:38:36.173Z,21.18
2019-05-29T14:41:06.272Z,21.37
2019-05-29T14:43:37.535Z,21.41
2019-05-29T14:46:08.092Z,21.91
2019-05-29T14:48:38.557Z,21.60
2019-05-29T14:51:08.705Z,21.70
2019-05-29T14:53:38.793Z,21.19
2019-05-29T14:56:08.923Z,20.72
2019-05-29T14:58:39.020Z,20.71
2019-05-29T15:01:09.225Z,21.06
2019-05-29T15:03:39.295Z,19.87
2019-05-29T15:06:09.735Z,20.13
2019-05-29T15:08:39.784Z,19.58
2019-05-29T15:11:10.093Z,19.38
2019-05-29T15:13:40.250Z,19.03
2019-05-29T15:16:10.873Z,18.55
2019-05-29T15:18:41.100Z,18.96
2019-05-29T15:21:11.219Z,18.94
2019-05-29T15:23:41.355Z,19.55
2019-05-29T15:26:11.735Z,19.36
2019-05-29T15:28:41.875Z,19.44
2019-05-29T15:31:12.417Z,20.08
2019-05-29T15:33:42.594Z,20.24
2019-05-29T15:36:13.178Z,20.87
2019-05-29T15:38:43.363Z,21.03
2019-05-29T15:41:14.773Z,21.14
2019-05-29T15:43:45.013Z,21.28
2019-05-29T15:46:16.426Z,21.51
2019-05-29T15:48:46.948Z,20.91
2019-05-29T15:51:17.179Z,20.27
2019-05-29T15:53:47.395Z,20.54
2019-05-29T15:56:27.165Z,19.83
2019-05-29T15:58:49.345Z,19.64
2019-05-29T16:01:19.455Z,19.92
2019-05-29T16:03:49.511Z,19.83
2019-05-29T16:06:19.648Z,19.41
2019-05-29T16:08:49.775Z,18.98
2019-05-29T16:11:19.908Z,18.20
2019-05-29T16:13:50.001Z,17.97
2019-05-29T16:16:20.106Z,18.21
2019-05-29T16:18:50.197Z,17.90
2019-05-29T16:21:20.286Z,17.66
2019-05-29T16:23:50.362Z,17.95
2019-05-29T16:26:21.452Z,17.37
2019-05-29T16:28:51.555Z,16.99
2019-05-29T16:31:22.922Z,17.15
2019-05-29T16:33:53.440Z,17.15
2019-05-29T16:36:23.516Z,16.69
2019-05-29T16:38:53.888Z,16.80
2019-05-29T16:41:23.972Z,16.90
2019-05-29T16:43:54.117Z,16.92
2019-05-29T16:46:24.766Z,16.92
2019-05-29T16:48:54.961Z,17.07
2019-05-29T16:51:25.079Z,17.07
2019-05-29T16:53:56.520Z,16.92
2019-05-29T16:56:26.595Z,16.83
2019-05-29T16:58:58.761Z,16.72
2019-05-29T17:01:28.856Z,16.72
2019-05-29T17:03:59.044Z,16.80
2019-05-29T17:06:52.511Z,16.34
2019-05-29T17:09:22.613Z,16.17
2019-05-29T17:11:52.699Z,16.28
2019-05-29T17:14:22.940Z,16.08
2019-05-29T17:16:53.237Z,16.15
2019-05-29T17:19:23.430Z,16.14
2019-05-29T17:21:53.553Z,15.90
2019-05-29T17:24:24.963Z,15.68
2019-05-29T17:27:07.406Z,15.96
2019-05-29T17:29:28.914Z,15.99
2019-05-29T17:31:59.016Z,15.82
2019-05-29T17:34:29.117Z,15.72
2019-05-29T17:36:59.284Z,15.59
2019-05-29T17:39:29.401Z,15.46
2019-05-29T17:41:59.515Z,15.51
2019-05-29T17:44:29.611Z,15.60
2019-05-29T17:46:59.741Z,15.38
2019-05-29T17:49:34.456Z,15.27
2019-05-29T17:52:01.711Z,15.15
2019-05-29T17:54:31.806Z,15.04
2019-05-29T17:57:02.078Z,15.00
2019-05-29T17:59:32.185Z,14.88
2019-05-29T18:02:02.531Z,14.77
2019-05-29T18:04:32.746Z,14.69
2019-05-29T18:07:02.896Z,14.72
2019-05-29T18:09:33.176Z,14.57
2019-05-29T18:12:03.284Z,14.51
2019-05-29T18:14:36.234Z,14.43
2019-05-29T18:17:06.377Z,14.34
2019-05-29T18:19:36.659Z,14.16
2019-05-29T18:22:06.781Z,14.01
2019-05-29T18:24:36.961Z,13.78
2019-05-29T18:27:07.113Z,13.78
2019-05-29T18:29:37.279Z,13.76
2019-05-29T18:32:09.265Z,13.61
2019-05-29T18:34:39.469Z,13.43
2019-05-29T18:37:09.632Z,13.28
2019-05-29T18:39:39.845Z,13.16
2019-05-29T18:42:09.962Z,13.09
2019-05-29T18:44:40.087Z,13.09
2019-05-29T18:47:13.266Z,13.02
2019-05-29T18:49:46.007Z,12.97
2019-05-29T18:52:35.306Z,12.89
2019-05-29T18:55:08.546Z,12.76
2019-05-29T18:57:38.725Z,12.57
2019-05-29T19:00:09.692Z,12.40
2019-05-29T19:02:39.871Z,12.29
2019-05-29T19:05:10.501Z,12.22
2019-05-29T19:07:45.375Z,12.14
2019-05-29T19:10:16.496Z,12.08
2019-05-29T19:12:46.623Z,12.01
2019-05-29T19:15:17.262Z,11.92
2019-05-29T19:17:47.409Z,11.72
2019-05-29T19:20:17.782Z,11.65
2019-05-29T19:22:50.728Z,11.62
2019-05-29T19:25:20.913Z,11.45
2019-05-29T19:27:51.190Z,11.24
2019-05-29T19:30:22.861Z,11.10
2019-05-29T19:32:53.256Z,10.96
2019-05-29T19:35:27.543Z,10.83
2019-05-29T19:37:57.939Z,10.74
2019-05-29T19:40:28.186Z,10.70
2019-05-29T19:42:58.370Z,10.60
2019-05-29T19:45:28.665Z,10.44
2019-05-29T19:47:58.797Z,10.19
2019-05-29T19:50:28.952Z,9.97
2019-05-29T19:52:59.026Z,9.83
2019-05-29T19:55:32.870Z,9.79
2019-05-29T19:58:01.116Z,9.72
2019-05-29T20:00:32.150Z,9.63
2019-05-29T20:03:02.430Z,9.51
2019-05-29T20:05:32.921Z,9.43
2019-05-29T20:08:03.043Z,9.37
2019-05-29T20:10:33.482Z,9.33
2019-05-29T20:13:03.585Z,9.25
2019-05-29T20:15:33.960Z,9.15
2019-05-29T20:18:04.334Z,9.06
2019-05-29T20:20:34.615Z,8.95
2019-05-29T20:23:04.733Z,8.84
2019-05-29T20:25:35.031Z,8.78
2019-05-29T20:28:10.647Z,8.76
2019-05-29T20:30:40.859Z,8.70
2019-05-29T20:33:11.174Z,8.70
2019-05-29T20:35:41.297Z,8.74
2019-05-29T20:38:11.448Z,8.73
2019-05-29T20:40:41.638Z,8.67
2019-05-29T20:43:11.882Z,8.62
2019-05-29T20:45:42.042Z,8.50
2019-05-29T20:48:12.199Z,8.37
2019-05-29T20:50:43.312Z,8.27
2019-05-29T20:53:13.654Z,8.25
2019-05-29T20:55:43.766Z,8.21
2019-05-29T20:58:24.501Z,8.15
2019-05-29T21:00:47.051Z,8.04
2019-05-29T21:03:17.338Z,7.96
2019-05-29T21:05:47.452Z,7.88
2019-05-29T21:08:17.600Z,7.79
2019-05-29T21:10:47.698Z,7.75
2019-05-29T21:13:17.845Z,7.66
2019-05-29T21:15:51.783Z,7.58
2019-05-29T21:18:21.946Z,7.50
2019-05-29T21:20:52.066Z,7.44
2019-05-29T21:23:22.173Z,7.34
2019-05-29T21:25:52.392Z,7.31
2019-05-29T21:28:22.491Z,7.28
2019-05-29T21:30:52.612Z,7.25
2019-05-29T21:33:22.755Z,7.29
2019-05-29T21:35:52.841Z,7.28
2019-05-29T21:38:22.973Z,7.27
2019-05-29T21:40:53.068Z,7.28
2019-05-29T21:43:23.175Z,7.25
2019-05-29T21:45:53.242Z,7.23
2019-05-29T21:48:23.519Z,7.25
2019-05-29T21:50:53.600Z,7.24
2019-05-29T21:53:23.719Z,7.25
2019-05-29T21:55:53.866Z,7.21
2019-05-29T21:58:23.974Z,7.14
2019-05-29T22:00:54.055Z,7.09
2019-05-29T22:03:24.139Z,7.05
2019-05-29T22:05:54.280Z,7.03
2019-05-29T22:08:24.384Z,6.97
2019-05-29T22:10:55.535Z,6.95
2019-05-29T22:13:25.754Z,6.97
2019-05-29T22:15:56.866Z,7.04
2019-05-29T22:18:27.044Z,7.04
2019-05-29T22:20:58.752Z,7.03
2019-05-29T22:23:29.202Z,7.02
2019-05-29T22:25:59.493Z,7.07
2019-05-29T22:28:29.650Z,7.12
2019-05-29T22:30:59.748Z,7.10
2019-05-29T22:33:29.848Z,7.11
2019-05-29T22:35:59.929Z,7.08
2019-05-29T22:38:30.013Z,7.02
2019-05-29T22:41:00.089Z,7.03
2019-05-29T22:43:30.178Z,7.01
2019-05-29T22:46:01.932Z,7.04
2019-05-29T22:48:32.169Z,7.03
2019-05-29T22:51:02.243Z,7.03
2019-05-29T22:53:32.371Z,7.00
2019-05-29T22:56:02.464Z,6.93
2019-05-29T22:58:32.570Z,6.99
2019-05-29T23:01:02.619Z,7.04
2019-05-29T23:03:32.782Z,7.13
2019-05-29T23:06:02.865Z,7.31
2019-05-29T23:08:32.964Z,7.41
2019-05-29T23:11:03.175Z,7.58
2019-05-29T23:13:33.237Z,7.80
2019-05-29T23:16:03.318Z,7.80
2019-05-29T23:18:33.427Z,7.77
2019-05-29T23:21:03.487Z,7.78
2019-05-29T23:23:33.590Z,7.87
2019-05-29T23:26:03.708Z,7.95
2019-05-29T23:28:33.834Z,7.88
2019-05-29T23:31:03.939Z,7.81
2019-05-29T23:33:34.000Z,7.82
2019-05-29T23:36:05.498Z,7.86
2019-05-29T23:38:35.535Z,7.96
2019-05-29T23:41:05.629Z,7.94
2019-05-29T23:43:35.743Z,7.97
2019-05-29T23:46:05.774Z,7.95
2019-05-29T23:48:35.873Z,7.96
2019-05-29T23:51:05.943Z,8.00
2019-05-29T23:53:36.013Z,7.97
2019-05-29T23:56:06.212Z,8.01
2019-05-29T23:58:36.270Z,7.97
